Time;durP1;ratioP1;P1;durP2;ratioP2;P2;SDS_P1;SDS_P2;PMS_P1;PMS_P2;Temp;Humidity;BMP_temperature;BMP_pressure;BME280_temperature;BME280_humidity;BME280_pressure;Samples;Min_cycle;Max_cycle;Signal;HPM_P1;HPM_P2
2022/09/17 00:00:10;;;;;;;;;;;14.90;99.90;15.10;99423.00;;;;343581;28;83527;-90
2022/09/17 00:00:22;;;;;;;;;;;14.90;99.90;15.10;99419.00;;;;347300;28;92537;-90
2022/09/17 00:00:35;;;;;;;;;;;14.90;99.90;15.10;99424.00;;;;346553;28;83264;-89
2022/09/17 00:00:48;;;;;;;;;;;14.90;99.90;15.10;99419.00;;;;345901;28;90409;-90
2022/09/17 00:01:00;;;;;;;;;;;14.90;99.90;15.20;99423.00;;;;345247;28;83503;-89
2022/09/17 00:01:22;;;;;;;;;;;14.90;99.90;15.20;99427.00;;;;346278;28;89969;-89
2022/09/17 00:01:34;;;;;;;;;;;15.00;99.90;15.10;99420.00;;;;343829;28;83456;-89
2022/09/17 00:01:46;;;;;;;;;;;14.90;99.90;15.20;99421.00;;;;344840;28;89847;-89
2022/09/17 00:01:59;;;;;;;;;;;14.90;99.90;15.10;99429.00;;;;345060;28;83457;-89
2022/09/17 00:02:12;;;;;;;;;;;14.90;99.90;15.10;99431.00;;;;347381;28;91293;-87
2022/09/17 00:02:25;;;;;;;;;;;14.90;99.90;15.20;99425.00;;;;343543;28;83178;-89
2022/09/17 00:02:37;;;;;;;;;;;14.90;99.90;15.20;99416.00;;;;344505;28;92540;-90
2022/09/17 00:02:55;;;;;;;;;;;14.90;99.90;15.20;99421.00;;;;346570;28;83475;-89
2022/09/17 00:03:08;;;;;;;;;;;15.00;99.90;15.10;99420.00;;;;342895;28;91538;-90
2022/09/17 00:03:21;;;;;;;;;;;15.00;99.90;15.20;99428.00;;;;346332;28;82605;-89
2022/09/17 00:03:34;;;;;;;;;;;15.00;99.90;15.20;99429.00;;;;344685;28;90618;-89
2022/09/17 00:03:54;;;;;;;;;;;14.90;99.90;15.20;99434.00;;;;344896;28;82650;-89
2022/09/17 00:04:06;;;;;;;;;;;15.00;99.90;15.20;99431.00;;;;347276;27;91875;-90
2022/09/17 00:04:18;;;;;;;;;;;14.90;99.90;15.20;99426.00;;;;345014;28;83533;-89
2022/09/17 00:04:30;;;;;;;;;;;14.90;99.90;15.10;99426.00;;;;344459;28;92776;-89
2022/09/17 00:04:41;;;;;;;;;;;14.90;99.90;15.20;99427.00;;;;346154;28;83424;-89
2022/09/17 00:04:53;;;;;;;;;;;14.90;99.90;15.10;99422.00;;;;345744;28;92720;-89
2022/09/17 00:05:06;;;;;;;;;;;15.00;99.90;15.10;99424.00;;;;345010;28;82638;-90
2022/09/17 00:05:17;;;;;;;;;;;14.90;99.90;15.20;99427.00;;;;345766;28;91450;-89
2022/09/17 00:05:29;;;;;;;;;;;14.90;99.90;15.10;99429.00;;;;345069;28;83356;-89
2022/09/17 00:05:41;;;;;;;;;;;14.90;99.90;15.10;99431.00;;;;344711;28;91564;-89
2022/09/17 00:06:01;;;;;;;;;;;15.00;99.90;15.20;99431.00;;;;346397;28;83408;-90
2022/09/17 00:06:13;;;;;;;;;;;15.00;99.90;15.20;99427.00;;;;347119;28;90910;-89
2022/09/17 00:06:25;;;;;;;;;;;15.00;99.90;15.20;99424.00;;;;345045;28;82590;-89
2022/09/17 00:06:37;;;;;;;;;;;14.90;99.90;15.20;99428.00;;;;344581;28;90595;-89
2022/09/17 00:06:49;;;;;;;;;;;14.90;99.90;15.20;99434.00;;;;346432;28;83500;-90
2022/09/17 00:07:00;;;;;;;;;;;14.90;99.90;15.20;99430.00;;;;345896;28;92624;-89
2022/09/17 00:07:12;;;;;;;;;;;14.90;99.90;15.10;99422.00;;;;346633;28;83304;-90
2022/09/17 00:07:24;;;;;;;;;;;14.90;99.90;15.20;99424.00;;;;345869;28;91852;-89
2022/09/17 00:07:36;;;;;;;;;;;15.00;99.90;15.20;99425.00;;;;345178;28;82553;-89
2022/09/17 00:07:48;;;;;;;;;;;14.90;99.90;15.10;99424.00;;;;344489;28;90925;-90
2022/09/17 00:08:01;;;;;;;;;;;14.90;99.90;15.20;99428.00;;;;345050;28;83565;-89
2022/09/17 00:08:13;;;;;;;;;;;15.00;99.90;15.10;99422.00;;;;343467;28;91611;-90
2022/09/17 00:08:25;;;;;;;;;;;14.90;99.90;15.10;99421.00;;;;345561;28;82351;-89
2022/09/17 00:08:39;;;;;;;;;;;14.90;99.90;15.20;99435.00;;;;343260;28;90612;-89
2022/09/17 00:08:52;;;;;;;;;;;14.90;99.90;15.20;99435.00;;;;344817;28;82555;-89
2022/09/17 00:09:05;;;;;;;;;;;14.90;99.90;15.10;99425.00;;;;345909;28;92979;-89
2022/09/17 00:09:16;;;;;;;;;;;14.90;99.90;15.10;99428.00;;;;347873;28;83453;-90
2022/09/17 00:09:28;;;;;;;;;;;14.90;99.90;15.10;99419.00;;;;346244;28;91566;-89
2022/09/17 00:09:41;;;;;;;;;;;14.90;99.90;15.10;99427.00;;;;347762;28;82559;-89
2022/09/17 00:09:53;;;;;;;;;;;14.90;99.90;15.10;99420.00;;;;344627;28;89140;-89
2022/09/17 00:10:05;;;;;;;;;;;14.90;99.90;15.10;99420.00;;;;346538;28;82544;-89
2022/09/17 00:10:17;;;;;;;;;;;14.90;99.90;15.10;99428.00;;;;343212;28;91497;-89
2022/09/17 00:10:30;;;;;;;;;;;14.90;99.90;15.10;99422.00;;;;349105;27;83510;-90
2022/09/17 00:10:42;;;;;;;;;;;14.90;99.90;15.20;99430.00;;;;345646;28;90593;-90
2022/09/17 00:10:54;;;;;;;;;;;14.90;99.90;15.20;99429.00;;;;347832;28;82821;-89
2022/09/17 00:11:26;;;;;;;;;;;14.90;99.90;15.10;99424.00;;;;347351;28;92270;-90
2022/09/17 00:11:40;;;;;;;;;;;14.90;99.90;15.10;99420.00;;;;344925;28;83409;-89
2022/09/17 00:11:52;;;;;;;;;;;14.90;99.90;15.10;99412.00;;;;345615;28;89605;-89
2022/09/17 00:12:04;;;;;;;;;;;14.90;99.90;15.20;99423.00;;;;346212;28;83530;-89
2022/09/17 00:12:15;;;;;;;;;;;14.90;99.90;15.10;99417.00;;;;346052;28;90564;-89
2022/09/17 00:12:27;;;;;;;;;;;14.90;99.90;15.10;99415.00;;;;347850;28;82638;-89
2022/09/17 00:12:39;;;;;;;;;;;14.90;99.90;15.00;99421.00;;;;346001;28;91548;-90
2022/09/17 00:12:51;;;;;;;;;;;14.90;99.90;15.10;99427.00;;;;343506;28;83517;-90
2022/09/17 00:13:03;;;;;;;;;;;14.90;99.90;15.10;99419.00;;;;344713;28;88364;-89
2022/09/17 00:13:15;;;;;;;;;;;14.90;99.90;15.20;99422.00;;;;346376;28;83477;-89
2022/09/17 00:13:27;;;;;;;;;;;14.90;99.90;15.20;99425.00;;;;344479;28;92625;-90
2022/09/17 00:13:39;;;;;;;;;;;14.90;99.90;15.20;99423.00;;;;346330;28;82601;-89
2022/09/17 00:13:51;;;;;;;;;;;14.90;99.90;15.10;99421.00;;;;343079;28;91589;-90
2022/09/17 00:14:04;;;;;;;;;;;14.90;99.90;15.10;99426.00;;;;346267;28;83504;-90
2022/09/17 00:14:16;;;;;;;;;;;14.90;99.90;15.20;99426.00;;;;346177;28;89793;-89
2022/09/17 00:14:27;;;;;;;;;;;14.90;99.90;15.20;99422.00;;;;342477;28;82524;-89
2022/09/17 00:14:39;;;;;;;;;;;14.90;99.90;15.20;99428.00;;;;344487;28;90863;-87
2022/09/17 00:14:51;;;;;;;;;;;14.90;99.90;15.20;99423.00;;;;344886;28;83508;-89
2022/09/17 00:15:03;;;;;;;;;;;14.90;99.90;15.20;99435.00;;;;344643;28;91487;-89
2022/09/17 00:15:15;;;;;;;;;;;15.00;99.90;15.20;99429.00;;;;347932;28;82529;-89
2022/09/17 00:15:27;;;;;;;;;;;14.90;99.90;15.20;99422.00;;;;347286;28;91695;-89
2022/09/17 00:15:42;;;;;;;;;;;14.90;99.90;15.20;99432.00;;;;342099;28;82525;-89
2022/09/17 00:15:54;;;;;;;;;;;14.90;99.90;15.10;99417.00;;;;345882;28;89616;-89
2022/09/17 00:16:06;;;;;;;;;;;14.90;99.90;15.20;99431.00;;;;346115;28;82544;-89
2022/09/17 00:16:26;;;;;;;;;;;14.90;99.90;15.00;99427.00;;;;345770;28;91240;-89
2022/09/17 00:16:41;;;;;;;;;;;14.90;99.90;15.00;99425.00;;;;346130;28;82596;-89
2022/09/17 00:16:52;;;;;;;;;;;14.90;99.90;15.10;99421.00;;;;347225;28;88964;-89
2022/09/17 00:17:04;;;;;;;;;;;14.90;99.90;15.00;99423.00;;;;343359;28;82585;-89
2022/09/17 00:17:16;;;;;;;;;;;14.90;99.90;15.00;99434.00;;;;344432;28;90861;-89
2022/09/17 00:17:28;;;;;;;;;;;14.90;99.90;15.00;99429.00;;;;343662;28;82626;-89
2022/09/17 00:17:40;;;;;;;;;;;14.90;99.90;15.10;99429.00;;;;346080;28;92768;-89
2022/09/17 00:17:54;;;;;;;;;;;14.90;99.90;15.10;99427.00;;;;343838;28;82480;-89
2022/09/17 00:18:13;;;;;;;;;;;14.90;99.90;15.10;99430.00;;;;346134;28;90265;-89
2022/09/17 00:18:25;;;;;;;;;;;14.90;99.90;15.00;99425.00;;;;344866;28;82593;-89
2022/09/17 00:18:40;;;;;;;;;;;14.80;99.90;15.00;99425.00;;;;343190;28;88979;-90
2022/09/17 00:18:52;;;;;;;;;;;14.90;99.90;15.10;99424.00;;;;346372;28;83402;-89
2022/09/17 00:19:04;;;;;;;;;;;14.80;99.90;15.10;99424.00;;;;344652;28;91709;-89
2022/09/17 00:19:21;;;;;;;;;;;14.90;99.90;15.10;99419.00;;;;347579;28;83368;-90
2022/09/17 00:19:33;;;;;;;;;;;14.90;99.90;15.00;99427.00;;;;346197;28;88928;-89
2022/09/17 00:19:45;;;;;;;;;;;14.90;99.90;15.00;99429.00;;;;345115;28;83382;-89
2022/09/17 00:19:57;;;;;;;;;;;14.90;99.90;15.00;99425.00;;;;344282;28;91320;-90
2022/09/17 00:20:09;;;;;;;;;;;14.90;99.90;15.00;99426.00;;;;343439;28;83449;-89
2022/09/17 00:20:21;;;;;;;;;;;14.80;99.90;15.00;99423.00;;;;344553;28;91597;-89
2022/09/17 00:20:37;;;;;;;;;;;14.80;99.90;15.00;99427.00;;;;346321;28;82498;-90
2022/09/17 00:20:49;;;;;;;;;;;14.80;99.90;15.10;99427.00;;;;347272;28;91334;-90
2022/09/17 00:21:01;;;;;;;;;;;14.80;99.90;15.10;99430.00;;;;344942;28;82566;-89
2022/09/17 00:21:16;;;;;;;;;;;14.80;99.90;15.10;99420.00;;;;343244;28;90584;-90
2022/09/17 00:21:28;;;;;;;;;;;14.80;99.90;15.10;99427.00;;;;346210;28;83464;-89
2022/09/17 00:21:40;;;;;;;;;;;14.90;99.90;15.00;99416.00;;;;344375;28;90316;-88
2022/09/17 00:21:52;;;;;;;;;;;14.80;99.90;15.10;99422.00;;;;346353;28;83428;-89
2022/09/17 00:22:04;;;;;;;;;;;14.80;99.90;15.10;99426.00;;;;345537;28;91995;-89
2022/09/17 00:22:16;;;;;;;;;;;14.80;99.90;15.10;99427.00;;;;344001;28;82574;-89
2022/09/17 00:22:27;;;;;;;;;;;14.80;99.90;15.10;99419.00;;;;347424;28;90286;-87
2022/09/17 00:22:39;;;;;;;;;;;14.90;99.90;15.10;99429.00;;;;346583;28;83472;-90
2022/09/17 00:22:52;;;;;;;;;;;14.80;99.90;15.10;99430.00;;;;343486;28;90894;-90
2022/09/17 00:23:04;;;;;;;;;;;14.90;99.90;15.00;99426.00;;;;346586;28;82549;-89
2022/09/17 00:23:17;;;;;;;;;;;14.80;99.90;15.00;99435.00;;;;348834;27;91381;-89
2022/09/17 00:23:29;;;;;;;;;;;14.90;99.90;15.10;99427.00;;;;343573;28;83575;-89
2022/09/17 00:23:41;;;;;;;;;;;14.80;99.90;15.00;99427.00;;;;346157;28;89931;-89
2022/09/17 00:23:58;;;;;;;;;;;14.80;99.90;15.10;99428.00;;;;346441;28;82419;-89
2022/09/17 00:24:10;;;;;;;;;;;14.80;99.90;15.10;99436.00;;;;344396;28;92520;-89
2022/09/17 00:24:22;;;;;;;;;;;14.80;99.90;15.10;99422.00;;;;345133;28;82504;-89
2022/09/17 00:24:34;;;;;;;;;;;14.80;99.90;15.10;99431.00;;;;347482;28;91917;-90
2022/09/17 00:24:46;;;;;;;;;;;14.80;99.90;15.00;99435.00;;;;345209;28;83481;-88
2022/09/17 00:24:58;;;;;;;;;;;14.80;99.90;14.90;99433.00;;;;344533;28;90582;-89
2022/09/17 00:25:10;;;;;;;;;;;14.80;99.90;14.90;99428.00;;;;343541;28;83572;-89
2022/09/17 00:25:22;;;;;;;;;;;14.80;99.90;15.00;99432.00;;;;347409;28;88906;-89
2022/09/17 00:25:41;;;;;;;;;;;14.80;99.90;15.00;99424.00;;;;345428;28;82493;-89
2022/09/17 00:25:53;;;;;;;;;;;14.80;99.90;15.10;99434.00;;;;347491;28;91717;-89
2022/09/17 00:26:05;;;;;;;;;;;14.80;99.90;15.00;99425.00;;;;346626;28;82526;-89
2022/09/17 00:26:17;;;;;;;;;;;14.80;99.90;15.00;99429.00;;;;347268;28;92512;-89
2022/09/17 00:26:29;;;;;;;;;;;14.80;99.90;15.00;99437.00;;;;345979;28;83406;-89
2022/09/17 00:26:41;;;;;;;;;;;14.80;99.90;15.00;99429.00;;;;345712;28;91287;-89
2022/09/17 00:26:53;;;;;;;;;;;14.80;99.90;15.10;99430.00;;;;349114;27;83462;-88
2022/09/17 00:27:04;;;;;;;;;;;14.80;99.90;15.10;99428.00;;;;346143;28;91658;-89
2022/09/17 00:27:16;;;;;;;;;;;14.80;99.90;15.10;99428.00;;;;346574;28;83434;-89
2022/09/17 00:27:28;;;;;;;;;;;14.80;99.90;15.10;99420.00;;;;344638;28;89199;-89
2022/09/17 00:27:40;;;;;;;;;;;14.80;99.90;15.00;99429.00;;;;346273;28;82633;-89
2022/09/17 00:27:52;;;;;;;;;;;14.80;99.90;15.00;99433.00;;;;343473;28;91170;-89
2022/09/17 00:28:04;;;;;;;;;;;14.80;99.90;15.00;99426.00;;;;344857;28;82572;-89
2022/09/17 00:28:16;;;;;;;;;;;14.80;99.90;15.00;99429.00;;;;343115;28;92350;-89
2022/09/17 00:28:28;;;;;;;;;;;14.80;99.90;15.00;99422.00;;;;345267;28;82576;-89
2022/09/17 00:28:44;;;;;;;;;;;14.80;99.90;15.00;99435.00;;;;344542;28;90789;-89
2022/09/17 00:28:56;;;;;;;;;;;14.80;99.90;14.90;99427.00;;;;348177;28;82466;-89
2022/09/17 00:29:09;;;;;;;;;;;14.80;99.90;15.00;99418.00;;;;345033;28;90523;-88
2022/09/17 00:29:21;;;;;;;;;;;14.80;99.90;15.00;99434.00;;;;345082;28;82529;-89
2022/09/17 00:29:32;;;;;;;;;;;14.80;99.90;15.00;99425.00;;;;346319;28;89554;-90
2022/09/17 00:29:44;;;;;;;;;;;14.80;99.90;15.10;99429.00;;;;345380;28;82550;-90
2022/09/17 00:29:56;;;;;;;;;;;14.80;99.90;15.00;99426.00;;;;344916;28;90931;-89
2022/09/17 00:30:09;;;;;;;;;;;14.80;99.90;15.00;99426.00;;;;346497;28;82638;-90
2022/09/17 00:30:24;;;;;;;;;;;14.80;99.90;14.90;99423.00;;;;346295;28;92981;-88
2022/09/17 00:30:44;;;;;;;;;;;14.80;99.90;15.00;99423.00;;;;346511;28;82508;-89
2022/09/17 00:30:55;;;;;;;;;;;14.80;99.90;14.90;99423.00;;;;347282;28;90294;-89
2022/09/17 00:31:08;;;;;;;;;;;14.80;99.90;15.00;99430.00;;;;346681;28;83439;-90
2022/09/17 00:31:21;;;;;;;;;;;14.80;99.90;14.90;99421.00;;;;346144;28;91727;-90
2022/09/17 00:31:33;;;;;;;;;;;14.80;99.90;14.90;99426.00;;;;346573;28;82676;-89
2022/09/17 00:31:45;;;;;;;;;;;14.80;99.90;14.80;99434.00;;;;343150;28;91425;-90
2022/09/17 00:31:57;;;;;;;;;;;14.70;99.90;14.80;99426.00;;;;346405;28;83403;-88
2022/09/17 00:32:09;;;;;;;;;;;14.70;99.90;14.90;99424.00;;;;343139;28;90650;-88
2022/09/17 00:32:22;;;;;;;;;;;14.70;99.90;14.90;99428.00;;;;349267;27;83556;-89
2022/09/17 00:32:34;;;;;;;;;;;14.70;99.90;14.90;99420.00;;;;345787;28;92452;-90
2022/09/17 00:32:46;;;;;;;;;;;14.70;99.90;15.00;99418.00;;;;345345;28;82511;-90
2022/09/17 00:32:58;;;;;;;;;;;14.70;99.90;15.00;99423.00;;;;345066;28;91634;-89
2022/09/17 00:33:10;;;;;;;;;;;14.70;99.90;15.00;99425.00;;;;347010;28;82513;-89
2022/09/17 00:33:22;;;;;;;;;;;14.70;99.90;15.00;99423.00;;;;346478;28;90295;-89
2022/09/17 00:33:34;;;;;;;;;;;14.70;99.90;15.00;99421.00;;;;345614;28;83374;-89
2022/09/17 00:33:46;;;;;;;;;;;14.70;99.90;15.00;99420.00;;;;347353;28;91689;-89
2022/09/17 00:33:58;;;;;;;;;;;14.70;99.90;15.00;99421.00;;;;347889;28;82504;-88
2022/09/17 00:34:11;;;;;;;;;;;14.70;99.90;14.90;99418.00;;;;346336;28;88087;-89
2022/09/17 00:34:23;;;;;;;;;;;14.70;99.90;15.00;99422.00;;;;346732;28;82593;-89
2022/09/17 00:34:35;;;;;;;;;;;14.70;99.90;15.00;99418.00;;;;347302;28;91068;-90
2022/09/17 00:34:48;;;;;;;;;;;14.70;99.90;15.00;99431.00;;;;346538;28;82534;-89
2022/09/17 00:34:59;;;;;;;;;;;14.70;99.90;15.00;99420.00;;;;346197;28;90362;-87
2022/09/17 00:35:11;;;;;;;;;;;14.70;99.90;15.00;99410.00;;;;349498;28;82416;-90
2022/09/17 00:35:24;;;;;;;;;;;14.80;99.90;14.90;99421.00;;;;347888;28;87895;-89
2022/09/17 00:35:36;;;;;;;;;;;14.70;99.90;15.00;99422.00;;;;348066;28;82358;-89
2022/09/17 00:35:59;;;;;;;;;;;14.70;99.90;15.10;99425.00;;;;347999;28;89939;-90
2022/09/17 00:36:11;;;;;;;;;;;14.70;99.90;15.00;99424.00;;;;347061;28;82536;-90
2022/09/17 00:36:23;;;;;;;;;;;14.70;99.90;15.00;99426.00;;;;346722;28;88765;-89
2022/09/17 00:36:36;;;;;;;;;;;14.80;99.90;15.00;99426.00;;;;347196;28;82470;-89
2022/09/17 00:36:47;;;;;;;;;;;14.70;99.90;15.00;99422.00;;;;346510;28;92310;-90
2022/09/17 00:36:59;;;;;;;;;;;14.80;99.90;15.00;99426.00;;;;345631;28;83353;-89
2022/09/17 00:37:11;;;;;;;;;;;14.80;99.90;15.10;99425.00;;;;346475;28;92074;-89
2022/09/17 00:37:23;;;;;;;;;;;14.80;99.90;15.00;99423.00;;;;346233;28;82577;-88
2022/09/17 00:37:34;;;;;;;;;;;14.70;99.90;15.10;99433.00;;;;344465;28;90069;-90
2022/09/17 00:37:46;;;;;;;;;;;14.80;99.90;15.10;99428.00;;;;347390;28;82597;-87
2022/09/17 00:37:58;;;;;;;;;;;14.80;99.90;15.10;99423.00;;;;347123;28;90508;-88
2022/09/17 00:38:10;;;;;;;;;;;14.70;99.90;14.90;99428.00;;;;346130;28;82789;-89
2022/09/17 00:38:22;;;;;;;;;;;14.80;99.90;15.00;99427.00;;;;345528;28;90649;-88
2022/09/17 00:38:34;;;;;;;;;;;14.70;99.90;15.00;99428.00;;;;346191;28;82504;-89
2022/09/17 00:38:53;;;;;;;;;;;14.80;99.90;15.10;99432.00;;;;345622;28;91638;-88
2022/09/17 00:39:06;;;;;;;;;;;14.80;99.90;15.00;99429.00;;;;343519;28;82467;-89
2022/09/17 00:39:17;;;;;;;;;;;14.80;99.90;15.00;99432.00;;;;346999;28;89666;-89
2022/09/17 00:39:29;;;;;;;;;;;14.70;99.90;15.00;99431.00;;;;346090;28;82532;-89
2022/09/17 00:39:41;;;;;;;;;;;14.70;99.90;15.00;99429.00;;;;344250;28;90460;-89
2022/09/17 00:39:53;;;;;;;;;;;14.70;99.90;15.10;99429.00;;;;347670;28;82537;-89
2022/09/17 00:40:05;;;;;;;;;;;14.80;99.90;15.10;99428.00;;;;345630;28;89783;-89
2022/09/17 00:40:17;;;;;;;;;;;14.80;99.90;15.10;99425.00;;;;347338;28;82581;-89
2022/09/17 00:40:30;;;;;;;;;;;14.80;99.90;15.00;99422.00;;;;348285;28;90352;-89
2022/09/17 00:40:42;;;;;;;;;;;14.80;99.90;15.00;99438.00;;;;346970;28;82509;-89
2022/09/17 00:40:53;;;;;;;;;;;14.80;99.90;15.10;99426.00;;;;346431;28;91397;-89
2022/09/17 00:41:05;;;;;;;;;;;14.80;99.90;15.10;99436.00;;;;347302;28;83386;-89
2022/09/17 00:41:18;;;;;;;;;;;14.80;99.90;15.00;99427.00;;;;345439;28;90365;-89
2022/09/17 00:41:30;;;;;;;;;;;14.80;99.90;15.00;99429.00;;;;345479;28;83471;-89
2022/09/17 00:41:43;;;;;;;;;;;14.80;99.90;15.10;99433.00;;;;346055;28;88904;-89
2022/09/17 00:41:54;;;;;;;;;;;14.80;99.90;15.10;99428.00;;;;346258;28;82524;-89
2022/09/17 00:42:09;;;;;;;;;;;14.80;99.90;15.00;99439.00;;;;345680;28;91639;-89
2022/09/17 00:42:21;;;;;;;;;;;14.80;99.90;15.00;99429.00;;;;346402;28;83412;-89
2022/09/17 00:42:33;;;;;;;;;;;14.80;99.90;15.00;99423.00;;;;345864;28;90592;-90
2022/09/17 00:42:45;;;;;;;;;;;14.80;99.90;15.00;99426.00;;;;346221;28;83418;-89
2022/09/17 00:42:56;;;;;;;;;;;14.80;99.90;15.00;99429.00;;;;347131;28;92317;-90
2022/09/17 00:43:11;;;;;;;;;;;14.80;99.90;15.10;99433.00;;;;344757;28;83473;-90
2022/09/17 00:43:51;;;;;;;;;;;14.80;99.90;15.00;99434.00;;;;341643;28;90238;-89
2022/09/17 00:44:40;;;;;;;;;;;14.80;99.90;15.10;99437.00;;;;342964;28;83661;-89
2022/09/17 00:44:54;;;;;;;;;;;14.80;99.90;14.90;99436.00;;;;344291;28;89156;-90
2022/09/17 00:45:08;;;;;;;;;;;14.80;99.90;14.90;99435.00;;;;343987;28;82587;-90
2022/09/17 00:45:20;;;;;;;;;;;14.80;99.90;15.00;99436.00;;;;344613;28;92396;-89
2022/09/17 00:45:32;;;;;;;;;;;14.80;99.90;15.00;99431.00;;;;344857;28;82542;-89
2022/09/17 00:45:44;;;;;;;;;;;14.80;99.90;15.00;99431.00;;;;345985;28;87995;-90
2022/09/17 00:45:55;;;;;;;;;;;14.80;99.90;15.00;99433.00;;;;344884;28;82484;-89
2022/09/17 00:46:33;;;;;;;;;;;14.70;99.90;15.00;99437.00;;;;343082;28;90794;-90
2022/09/17 00:46:45;;;;;;;;;;;14.70;99.90;15.00;99436.00;;;;344981;28;83362;-89
2022/09/17 00:46:57;;;;;;;;;;;14.70;99.90;15.00;99432.00;;;;346218;28;91382;-89
2022/09/17 00:47:20;;;;;;;;;;;14.70;99.90;15.00;99429.00;;;;346721;28;83339;-90
2022/09/17 00:47:38;;;;;;;;;;;14.80;99.90;14.90;99436.00;;;;344357;28;90881;-89
2022/09/17 00:47:57;;;;;;;;;;;14.70;99.90;14.90;99438.00;;;;345403;28;82488;-89
2022/09/17 00:48:09;;;;;;;;;;;14.70;99.90;14.90;99432.00;;;;346043;28;91300;-89
2022/09/17 00:48:20;;;;;;;;;;;14.70;99.90;15.00;99432.00;;;;345121;28;82509;-89
2022/09/17 00:48:33;;;;;;;;;;;14.70;99.90;14.90;99436.00;;;;347437;28;91509;-89
2022/09/17 00:48:45;;;;;;;;;;;14.70;99.90;14.90;99438.00;;;;346413;28;82547;-89
2022/09/17 00:48:58;;;;;;;;;;;14.70;99.90;14.90;99435.00;;;;344723;28;92222;-89
2022/09/17 00:49:19;;;;;;;;;;;14.70;99.90;14.90;99428.00;;;;346694;28;82249;-89
2022/09/17 00:49:31;;;;;;;;;;;14.70;99.90;14.90;99436.00;;;;346299;28;90421;-89
2022/09/17 00:49:48;;;;;;;;;;;14.70;99.90;14.90;99438.00;;;;346831;28;82459;-90
2022/09/17 00:50:04;;;;;;;;;;;14.70;99.90;15.00;99435.00;;;;344867;28;91140;-89
2022/09/17 00:50:27;;;;;;;;;;;14.70;99.90;14.90;99443.00;;;;343769;28;83204;-89
2022/09/17 00:50:40;;;;;;;;;;;14.70;99.90;15.00;99447.00;;;;343491;28;87982;-89
2022/09/17 00:50:52;;;;;;;;;;;14.70;99.90;15.00;99438.00;;;;345307;28;82438;-89
2022/09/17 00:51:05;;;;;;;;;;;14.70;99.90;15.00;99438.00;;;;343602;28;90997;-89
2022/09/17 00:51:19;;;;;;;;;;;14.70;99.90;15.00;99438.00;;;;345170;28;82478;-90
2022/09/17 00:51:43;;;;;;;;;;;14.70;99.90;15.00;99434.00;;;;344725;28;91394;-89
2022/09/17 00:52:03;;;;;;;;;;;14.70;99.90;14.90;99445.00;;;;343521;28;83409;-89
2022/09/17 00:52:23;;;;;;;;;;;14.70;99.90;15.00;99439.00;;;;345691;28;91505;-89
2022/09/17 00:52:42;;;;;;;;;;;14.70;99.90;15.00;99444.00;;;;343132;28;83952;-89
2022/09/17 00:52:56;;;;;;;;;;;14.70;99.90;15.00;99444.00;;;;344458;28;91791;-89
2022/09/17 00:53:12;;;;;;;;;;;14.70;99.90;15.00;99442.00;;;;344876;28;83325;-89
2022/09/17 00:53:24;;;;;;;;;;;14.70;99.90;15.00;99445.00;;;;345720;28;88239;-89
2022/09/17 00:53:36;;;;;;;;;;;14.70;99.90;15.10;99443.00;;;;346249;28;83317;-89
2022/09/17 00:53:47;;;;;;;;;;;14.70;99.90;15.00;99441.00;;;;342930;28;90854;-90
2022/09/17 00:54:00;;;;;;;;;;;14.80;99.90;15.00;99442.00;;;;344700;28;83406;-89
2022/09/17 00:54:12;;;;;;;;;;;14.70;99.90;15.00;99441.00;;;;345671;28;92311;-89
2022/09/17 00:54:25;;;;;;;;;;;14.70;99.90;15.10;99441.00;;;;346208;28;82559;-89
2022/09/17 00:54:38;;;;;;;;;;;14.70;99.90;15.00;99441.00;;;;346870;28;90453;-89
2022/09/17 00:54:59;;;;;;;;;;;14.70;99.90;15.00;99442.00;;;;344663;28;83370;-89
2022/09/17 00:55:22;;;;;;;;;;;14.70;99.90;15.00;99445.00;;;;347390;28;91832;-89
2022/09/17 00:55:39;;;;;;;;;;;14.70;99.90;14.90;99444.00;;;;349420;27;83465;-90
2022/09/17 00:55:56;;;;;;;;;;;14.70;99.90;15.00;99447.00;;;;344663;28;89307;-89
2022/09/17 00:56:28;;;;;;;;;;;14.70;99.90;15.00;99445.00;;;;346371;28;82728;-89
2022/09/17 00:56:42;;;;;;;;;;;14.70;99.90;14.90;99439.00;;;;345803;28;91699;-89
2022/09/17 00:56:54;;;;;;;;;;;14.70;99.90;14.90;99443.00;;;;348959;27;83363;-89
2022/09/17 00:57:06;;;;;;;;;;;14.70;99.90;14.90;99439.00;;;;344968;28;93570;-89
2022/09/17 00:57:17;;;;;;;;;;;14.70;99.90;15.00;99449.00;;;;343901;28;82485;-90
2022/09/17 00:57:30;;;;;;;;;;;14.70;99.90;15.00;99441.00;;;;346563;28;91447;-89
2022/09/17 00:57:44;;;;;;;;;;;14.70;99.90;14.90;99446.00;;;;346935;28;82458;-90
2022/09/17 00:57:58;;;;;;;;;;;14.70;99.90;14.90;99442.00;;;;346306;28;91851;-90
2022/09/17 00:58:11;;;;;;;;;;;14.70;99.90;14.90;99444.00;;;;349539;27;83400;-89
2022/09/17 00:58:24;;;;;;;;;;;14.70;99.90;15.00;99448.00;;;;345269;28;88255;-89
2022/09/17 00:58:36;;;;;;;;;;;14.70;99.90;14.90;99437.00;;;;344988;28;82468;-89
2022/09/17 00:58:52;;;;;;;;;;;14.70;99.90;14.90;99446.00;;;;344471;28;89235;-89
2022/09/17 00:59:03;;;;;;;;;;;14.70;99.90;14.80;99443.00;;;;345025;28;83386;-89
2022/09/17 00:59:15;;;;;;;;;;;14.70;99.90;14.90;99443.00;;;;345987;28;89098;-89
2022/09/17 00:59:27;;;;;;;;;;;14.70;99.90;14.90;99442.00;;;;346269;28;83711;-89
2022/09/17 00:59:39;;;;;;;;;;;14.70;99.90;14.90;99441.00;;;;347391;28;90476;-90
2022/09/17 00:59:51;;;;;;;;;;;14.70;99.90;14.90;99446.00;;;;347879;28;83418;-89
2022/09/17 01:00:04;;;;;;;;;;;14.70;99.90;14.90;99442.00;;;;344553;28;89176;-89
2022/09/17 01:00:17;;;;;;;;;;;14.70;99.90;14.90;99451.00;;;;345067;28;83376;-90
2022/09/17 01:00:29;;;;;;;;;;;14.70;99.90;14.90;99448.00;;;;346007;28;90796;-89
2022/09/17 01:00:42;;;;;;;;;;;14.70;99.90;15.00;99444.00;;;;348174;28;82613;-89
2022/09/17 01:00:56;;;;;;;;;;;14.70;99.90;14.80;99446.00;;;;343012;28;91820;-89
2022/09/17 01:01:07;;;;;;;;;;;14.70;99.90;14.90;99437.00;;;;346213;28;83475;-89
2022/09/17 01:01:19;;;;;;;;;;;14.70;99.90;14.90;99444.00;;;;347201;28;90048;-88
2022/09/17 01:01:31;;;;;;;;;;;14.70;99.90;14.90;99443.00;;;;346429;28;83564;-90
2022/09/17 01:01:43;;;;;;;;;;;14.70;99.90;14.90;99442.00;;;;345956;28;90310;-89
2022/09/17 01:01:55;;;;;;;;;;;14.70;99.90;15.00;99444.00;;;;343754;28;82452;-89
2022/09/17 01:02:07;;;;;;;;;;;14.60;99.90;14.90;99451.00;;;;344280;28;91111;-90
2022/09/17 01:02:19;;;;;;;;;;;14.70;99.90;14.80;99453.00;;;;344881;28;83231;-89
2022/09/17 01:02:31;;;;;;;;;;;14.70;99.90;14.80;99445.00;;;;344312;28;89517;-89
2022/09/17 01:02:42;;;;;;;;;;;14.60;99.90;14.90;99452.00;;;;346333;28;83477;-90
2022/09/17 01:02:54;;;;;;;;;;;14.60;99.90;14.90;99452.00;;;;344517;28;90417;-89
2022/09/17 01:03:06;;;;;;;;;;;14.70;99.90;14.90;99440.00;;;;343459;28;83367;-89
2022/09/17 01:03:18;;;;;;;;;;;14.60;99.90;15.00;99449.00;;;;345804;28;92806;-88
2022/09/17 01:03:30;;;;;;;;;;;14.70;99.90;15.00;99448.00;;;;346156;28;82561;-88
2022/09/17 01:03:42;;;;;;;;;;;14.70;99.90;15.00;99443.00;;;;344356;28;91795;-89
2022/09/17 01:03:53;;;;;;;;;;;14.70;99.90;15.00;99448.00;;;;346165;28;82485;-90
2022/09/17 01:04:05;;;;;;;;;;;14.60;99.90;14.90;99455.00;;;;344484;28;90838;-89
2022/09/17 01:04:25;;;;;;;;;;;14.60;99.90;14.90;99448.00;;;;346151;28;82498;-89
2022/09/17 01:04:36;;;;;;;;;;;14.60;99.90;15.00;99447.00;;;;345506;28;90269;-89
2022/09/17 01:04:50;;;;;;;;;;;14.70;99.90;14.90;99451.00;;;;346154;28;82536;-89
2022/09/17 01:05:01;;;;;;;;;;;14.70;99.90;14.90;99453.00;;;;345865;28;90262;-89
2022/09/17 01:05:13;;;;;;;;;;;14.70;99.90;14.90;99436.00;;;;346235;28;82573;-89
2022/09/17 01:05:33;;;;;;;;;;;14.70;99.90;15.00;99448.00;;;;344292;28;92280;-89
2022/09/17 01:06:04;;;;;;;;;;;14.70;99.90;15.00;99450.00;;;;344853;28;83521;-90
2022/09/17 01:06:42;;;;;;;;;;;14.70;99.90;15.00;99447.00;;;;345766;28;90240;-89
2022/09/17 01:07:05;;;;;;;;;;;14.70;99.90;15.00;99449.00;;;;347759;28;82463;-89
2022/09/17 01:07:44;;;;;;;;;;;14.70;99.90;15.00;99451.00;;;;344434;28;91541;-88
2022/09/17 01:08:18;;;;;;;;;;;14.70;99.90;14.90;99458.00;;;;347699;28;82603;-89